createdAt,value
2019-03-11T00:00:00.887Z,4.70
2019-03-11T00:00:41.171Z,4.70
2019-03-11T00:01:18.623Z,4.70
2019-03-11T00:01:54.239Z,4.70
2019-03-11T00:02:29.834Z,4.70
2019-03-11T00:03:05.491Z,4.70
2019-03-11T00:03:41.150Z,4.70
2019-03-11T00:04:17.398Z,4.70
2019-03-11T00:04:53.860Z,4.70
2019-03-11T00:05:29.529Z,4.70
2019-03-11T00:06:05.120Z,4.70
2019-03-11T00:06:40.670Z,4.70
2019-03-11T00:07:16.243Z,4.70
2019-03-11T00:07:51.830Z,4.70
2019-03-11T00:08:27.559Z,4.60
2019-03-11T00:09:04.193Z,4.70
2019-03-11T00:09:41.450Z,4.60
2019-03-11T00:10:17.007Z,4.60
2019-03-11T00:10:52.578Z,4.60
2019-03-11T00:11:28.239Z,4.60
2019-03-11T00:12:03.861Z,4.60
2019-03-11T00:12:40.085Z,4.60
2019-03-11T00:13:15.943Z,4.60
2019-03-11T00:13:51.554Z,4.60
2019-03-11T00:14:27.107Z,4.60
2019-03-11T00:15:03.123Z,4.60
2019-03-11T00:15:38.737Z,4.60
2019-03-11T00:16:14.612Z,4.60
2019-03-11T00:16:50.182Z,4.60
2019-03-11T00:17:25.839Z,4.60
2019-03-11T00:18:01.414Z,4.60
2019-03-11T00:18:37.067Z,4.60
2019-03-11T00:19:12.654Z,4.60
2019-03-11T00:19:48.207Z,4.60
2019-03-11T00:20:23.867Z,4.60
2019-03-11T00:20:59.422Z,4.60
2019-03-11T00:21:34.987Z,4.50
2019-03-11T00:22:10.570Z,4.60
2019-03-11T00:22:46.242Z,4.60
2019-03-11T00:23:22.129Z,4.60
2019-03-11T00:23:58.129Z,4.60
2019-03-11T00:24:33.731Z,4.60
2019-03-11T00:25:09.651Z,4.60
2019-03-11T00:25:45.202Z,4.60
2019-03-11T00:26:20.798Z,4.60
2019-03-11T00:26:56.467Z,4.60
2019-03-11T00:27:32.018Z,4.60
2019-03-11T00:28:08.902Z,4.60
2019-03-11T00:28:47.469Z,4.60
2019-03-11T00:29:24.648Z,4.60
2019-03-11T00:30:01.663Z,4.60
2019-03-11T00:30:40.786Z,4.60
2019-03-11T00:31:19.138Z,4.60
2019-03-11T00:31:56.481Z,4.60
2019-03-11T00:32:32.739Z,4.60
2019-03-11T00:33:08.395Z,4.60
2019-03-11T00:33:43.930Z,4.70
2019-03-11T00:34:19.735Z,4.70
2019-03-11T00:34:55.319Z,4.70
2019-03-11T00:35:31.139Z,4.70
2019-03-11T00:36:06.723Z,4.70
2019-03-11T00:36:42.310Z,4.70
2019-03-11T00:37:17.847Z,4.70
2019-03-11T00:37:53.379Z,4.70
2019-03-11T00:38:29.018Z,4.70
2019-03-11T00:39:05.890Z,4.70
2019-03-11T00:39:41.984Z,4.70
2019-03-11T00:40:17.606Z,4.70
2019-03-11T00:40:53.178Z,4.70
2019-03-11T00:41:28.733Z,4.70
2019-03-11T00:42:04.368Z,4.70
2019-03-11T00:42:39.919Z,4.70
2019-03-11T00:43:15.827Z,4.70
2019-03-11T00:43:51.382Z,4.70
2019-03-11T00:44:26.934Z,4.70
2019-03-11T00:45:02.532Z,4.80
2019-03-11T00:45:38.109Z,4.80
2019-03-11T00:46:14.051Z,4.80
2019-03-11T00:46:49.956Z,4.80
2019-03-11T00:47:25.522Z,4.80
2019-03-11T00:48:02.561Z,4.80
2019-03-11T00:48:38.682Z,4.80
2019-03-11T00:49:17.946Z,4.80
2019-03-11T00:49:53.559Z,4.80
2019-03-11T00:50:29.220Z,4.80
2019-03-11T00:51:06.227Z,4.80
2019-03-11T00:51:42.030Z,4.80
2019-03-11T00:52:17.700Z,4.80
2019-03-11T00:52:53.658Z,4.80
2019-03-11T00:53:29.213Z,4.80
2019-03-11T00:54:04.774Z,4.80
2019-03-11T00:54:40.326Z,4.80
2019-03-11T00:55:15.870Z,4.80
2019-03-11T00:55:51.835Z,4.80
2019-03-11T00:56:27.411Z,4.80
2019-03-11T00:57:02.966Z,4.80
2019-03-11T00:57:38.490Z,4.80
2019-03-11T00:58:14.363Z,4.80
2019-03-11T00:58:49.930Z,4.90
2019-03-11T00:59:25.473Z,4.80
2019-03-11T01:00:01.011Z,4.90
2019-03-11T01:00:36.795Z,4.80
2019-03-11T01:01:12.360Z,4.80
2019-03-11T01:01:47.899Z,4.90
2019-03-11T01:02:23.461Z,4.90
2019-03-11T01:02:59.001Z,4.80
2019-03-11T01:03:34.574Z,4.80
2019-03-11T01:04:10.120Z,4.90
2019-03-11T01:04:45.663Z,4.80
2019-03-11T01:05:21.222Z,4.80
2019-03-11T01:05:56.760Z,4.80
2019-03-11T01:06:32.388Z,4.80
2019-03-11T01:07:07.941Z,4.80
2019-03-11T01:07:43.832Z,4.80
2019-03-11T01:08:19.494Z,4.90
2019-03-11T01:08:55.295Z,4.80
2019-03-11T01:09:31.031Z,4.80
2019-03-11T01:10:07.208Z,4.80
2019-03-11T01:10:42.801Z,4.90
2019-03-11T01:11:18.351Z,4.90
2019-03-11T01:11:54.162Z,4.90
2019-03-11T01:12:29.983Z,4.90
2019-03-11T01:13:05.590Z,4.90
2019-03-11T01:13:41.150Z,4.90
2019-03-11T01:14:16.716Z,4.90
2019-03-11T01:14:52.269Z,4.90
2019-03-11T01:15:27.815Z,4.90
2019-03-11T01:16:03.371Z,4.90
2019-03-11T01:16:38.903Z,4.90
2019-03-11T01:17:14.486Z,4.90
2019-03-11T01:17:50.064Z,4.90
2019-03-11T01:18:26.672Z,4.90
2019-03-11T01:19:02.239Z,4.90
2019-03-11T01:19:37.806Z,4.90
2019-03-11T01:20:13.438Z,4.90
2019-03-11T01:20:49.002Z,4.90
2019-03-11T01:21:24.894Z,4.90
2019-03-11T01:22:00.733Z,4.90
2019-03-11T01:22:36.262Z,4.90
2019-03-11T01:23:11.791Z,4.90
2019-03-11T01:23:47.355Z,4.90
2019-03-11T01:24:23.535Z,4.90
2019-03-11T01:25:00.164Z,4.90
2019-03-11T01:25:35.902Z,4.90
2019-03-11T01:26:11.452Z,4.90
2019-03-11T01:26:47.066Z,4.90
2019-03-11T01:27:22.617Z,4.90
2019-03-11T01:27:58.146Z,4.90
2019-03-11T01:28:33.690Z,4.90
2019-03-11T01:29:10.004Z,4.90
2019-03-11T01:29:45.803Z,4.90
2019-03-11T01:30:21.348Z,4.90
2019-03-11T01:30:56.903Z,4.90
2019-03-11T01:31:34.015Z,4.90
2019-03-11T01:32:09.646Z,4.90
2019-03-11T01:32:45.190Z,4.90
2019-03-11T01:33:20.736Z,4.90
2019-03-11T01:33:57.348Z,4.90
2019-03-11T01:34:32.892Z,4.90
2019-03-11T01:35:08.796Z,4.90
2019-03-11T01:35:44.658Z,4.90
2019-03-11T01:36:20.282Z,4.90
2019-03-11T01:36:56.111Z,4.90
2019-03-11T01:37:31.654Z,4.90
2019-03-11T01:38:07.938Z,4.90
2019-03-11T01:38:43.503Z,4.90
2019-03-11T01:39:19.128Z,4.90
2019-03-11T01:39:54.739Z,4.90
2019-03-11T01:40:30.299Z,4.90
2019-03-11T01:41:05.990Z,4.90
2019-03-11T01:41:41.526Z,4.90
2019-03-11T01:42:17.379Z,4.90
2019-03-11T01:42:53.302Z,4.90
2019-03-11T01:43:29.094Z,4.90
2019-03-11T01:44:04.630Z,4.90
2019-03-11T01:44:40.227Z,4.90
2019-03-11T01:45:16.154Z,4.90
2019-03-11T01:45:51.718Z,4.90
2019-03-11T01:46:27.277Z,4.90
2019-03-11T01:47:03.243Z,4.80
2019-03-11T01:47:38.814Z,4.80
2019-03-11T01:48:14.360Z,4.90
2019-03-11T01:48:49.907Z,4.80
2019-03-11T01:49:25.736Z,4.80
2019-03-11T01:50:01.296Z,4.80
2019-03-11T01:50:36.839Z,4.80
2019-03-11T01:51:12.711Z,4.80
2019-03-11T01:51:48.269Z,4.80
2019-03-11T01:52:24.119Z,4.80
2019-03-11T01:52:59.678Z,4.80
2019-03-11T01:53:35.220Z,4.80
2019-03-11T01:54:10.759Z,4.80
2019-03-11T01:54:46.311Z,4.80
2019-03-11T01:55:21.886Z,4.80
2019-03-11T01:55:57.419Z,4.80
2019-03-11T01:56:32.969Z,4.80
2019-03-11T01:57:09.475Z,4.80
2019-03-11T01:57:45.018Z,4.80
2019-03-11T01:58:20.579Z,4.80
2019-03-11T01:58:56.370Z,4.80
2019-03-11T01:59:32.206Z,4.80
2019-03-11T02:00:10.042Z,4.80
2019-03-11T02:00:45.659Z,4.80
2019-03-11T02:01:21.214Z,4.80
2019-03-11T02:01:57.102Z,4.80
2019-03-11T02:02:32.646Z,4.80
2019-03-11T02:03:08.211Z,4.80
2019-03-11T02:03:44.008Z,4.80
2019-03-11T02:04:19.551Z,4.80
2019-03-11T02:04:55.101Z,4.80
2019-03-11T02:05:30.931Z,4.80
2019-03-11T02:06:06.486Z,4.80
2019-03-11T02:06:42.039Z,4.80
2019-03-11T02:07:17.598Z,4.70
2019-03-11T02:07:53.135Z,4.70
2019-03-11T02:08:28.712Z,4.80
2019-03-11T02:09:04.682Z,4.80
2019-03-11T02:09:41.996Z,4.70
2019-03-11T02:10:17.563Z,4.70
2019-03-11T02:10:53.139Z,4.70
2019-03-11T02:11:28.666Z,4.70
2019-03-11T02:12:04.198Z,4.70
2019-03-11T02:12:39.753Z,4.70
2019-03-11T02:13:15.295Z,4.70
2019-03-11T02:13:51.106Z,4.70
2019-03-11T02:14:26.674Z,4.70
2019-03-11T02:15:02.483Z,4.70
2019-03-11T02:15:38.034Z,4.70
2019-03-11T02:16:13.598Z,4.70
2019-03-11T02:16:49.130Z,4.70
2019-03-11T02:17:24.683Z,4.70
2019-03-11T02:18:00.539Z,4.70
2019-03-11T02:18:36.347Z,4.70
2019-03-11T02:19:11.938Z,4.70
2019-03-11T02:19:47.858Z,4.70
2019-03-11T02:20:23.402Z,4.70
2019-03-11T02:20:58.930Z,4.70
2019-03-11T02:21:34.483Z,4.70
2019-03-11T02:22:10.029Z,4.70
2019-03-11T02:22:45.899Z,4.70
2019-03-11T02:23:21.465Z,4.70
2019-03-11T02:23:57.358Z,4.70
2019-03-11T02:24:32.947Z,4.70
2019-03-11T02:25:08.683Z,4.70
2019-03-11T02:25:44.301Z,4.70
2019-03-11T02:26:19.850Z,4.70
2019-03-11T02:26:55.410Z,4.70
2019-03-11T02:27:30.959Z,4.60
2019-03-11T02:28:06.933Z,4.70
2019-03-11T02:28:42.766Z,4.60
2019-03-11T02:29:18.325Z,4.60
2019-03-11T02:29:53.911Z,4.70
2019-03-11T02:30:29.787Z,4.70
2019-03-11T02:31:05.367Z,4.70
2019-03-11T02:31:40.940Z,4.60
2019-03-11T02:32:16.487Z,4.60
2019-03-11T02:32:52.014Z,4.70
2019-03-11T02:33:28.878Z,4.60
2019-03-11T02:34:06.016Z,4.60
2019-03-11T02:34:41.564Z,4.60
2019-03-11T02:35:26.807Z,4.60
2019-03-11T02:36:02.376Z,4.60
2019-03-11T02:36:37.914Z,4.60
2019-03-11T02:37:13.460Z,4.60
2019-03-11T02:37:49.308Z,4.50
2019-03-11T02:38:24.847Z,4.50
2019-03-11T02:39:00.474Z,4.50
2019-03-11T02:39:36.286Z,4.50
2019-03-11T02:40:11.919Z,4.50
2019-03-11T02:40:47.582Z,4.50
2019-03-11T02:41:23.422Z,4.50
2019-03-11T02:41:59.334Z,4.50
2019-03-11T02:42:34.878Z,4.50
2019-03-11T02:43:10.416Z,4.50
2019-03-11T02:43:46.218Z,4.50
2019-03-11T02:44:21.770Z,4.50
2019-03-11T02:44:57.643Z,4.50
2019-03-11T02:45:33.215Z,4.50
2019-03-11T02:46:08.792Z,4.50
2019-03-11T02:46:44.327Z,4.40
2019-03-11T02:47:20.192Z,4.40
2019-03-11T02:47:56.130Z,4.50
2019-03-11T02:48:31.666Z,4.50
2019-03-11T02:49:07.223Z,4.50
2019-03-11T02:49:44.081Z,4.50
2019-03-11T02:50:19.860Z,4.50
2019-03-11T02:50:55.395Z,4.50
2019-03-11T02:51:31.276Z,4.50
2019-03-11T02:52:06.832Z,4.50
2019-03-11T02:52:42.390Z,4.50
2019-03-11T02:53:17.997Z,4.50
2019-03-11T02:53:53.816Z,4.50
2019-03-11T02:54:29.391Z,4.50
2019-03-11T02:55:05.117Z,4.50
2019-03-11T02:55:40.657Z,4.50
2019-03-11T02:56:16.200Z,4.50
2019-03-11T02:56:52.009Z,4.50
2019-03-11T02:57:27.561Z,4.50
2019-03-11T02:58:03.114Z,4.50
2019-03-11T02:58:38.655Z,4.50
2019-03-11T02:59:14.230Z,4.50
2019-03-11T02:59:50.149Z,4.50
2019-03-11T03:00:25.762Z,4.50
2019-03-11T03:01:35.570Z,4.50
2019-03-11T03:02:33.345Z,4.50
2019-03-11T03:03:26.655Z,4.50
2019-03-11T03:04:12.642Z,4.50
2019-03-11T03:04:55.091Z,4.50
2019-03-11T03:05:38.360Z,4.50
2019-03-11T03:06:16.384Z,4.40
2019-03-11T03:06:52.252Z,4.40
2019-03-11T03:07:27.806Z,4.40
2019-03-11T03:08:03.357Z,4.40
2019-03-11T03:08:38.891Z,4.40
2019-03-11T03:09:14.842Z,4.40
2019-03-11T03:09:50.387Z,4.40
2019-03-11T03:10:26.301Z,4.40
2019-03-11T03:11:01.929Z,4.40
2019-03-11T03:11:37.526Z,4.40
2019-03-11T03:12:13.402Z,4.40
2019-03-11T03:12:48.941Z,4.40
2019-03-11T03:13:24.532Z,4.40
2019-03-11T03:14:00.109Z,4.40
2019-03-11T03:14:35.647Z,4.40
2019-03-11T03:15:11.187Z,4.40
2019-03-11T03:15:46.737Z,4.40
2019-03-11T03:16:22.275Z,4.40
2019-03-11T03:16:57.896Z,4.40
2019-03-11T03:17:34.440Z,4.40
2019-03-11T03:18:10.456Z,4.30
2019-03-11T03:18:45.999Z,4.40
2019-03-11T03:19:21.599Z,4.30
2019-03-11T03:19:57.467Z,4.30
2019-03-11T03:20:33.031Z,4.30
2019-03-11T03:21:08.580Z,4.30
2019-03-11T03:21:44.212Z,4.30
2019-03-11T03:22:20.096Z,4.30
2019-03-11T03:22:55.649Z,4.30
2019-03-11T03:23:31.491Z,4.30
2019-03-11T03:24:07.035Z,4.30
2019-03-11T03:24:42.570Z,4.30
2019-03-11T03:25:32.203Z,4.30
2019-03-11T03:25:55.361Z,4.30
2019-03-11T03:26:30.903Z,4.30
2019-03-11T03:27:06.459Z,4.30
2019-03-11T03:27:42.094Z,4.30
2019-03-11T03:28:17.761Z,4.20
2019-03-11T03:28:53.421Z,4.20
2019-03-11T03:29:29.242Z,4.20
2019-03-11T03:30:06.598Z,4.20
2019-03-11T03:30:42.200Z,4.20
2019-03-11T03:31:17.735Z,4.20
2019-03-11T03:31:53.279Z,4.20
2019-03-11T03:32:29.080Z,4.20
2019-03-11T03:33:04.614Z,4.20
2019-03-11T03:33:40.149Z,4.20
2019-03-11T03:34:15.704Z,4.20
2019-03-11T03:34:51.475Z,4.20
2019-03-11T03:35:27.048Z,4.20
2019-03-11T03:36:02.648Z,4.20
2019-03-11T03:36:38.189Z,4.20
2019-03-11T03:37:14.191Z,4.20
2019-03-11T03:37:49.823Z,4.20
2019-03-11T03:38:30.996Z,4.20
2019-03-11T03:39:04.206Z,4.20
2019-03-11T03:39:41.125Z,4.20
2019-03-11T03:40:16.662Z,4.20
2019-03-11T03:40:52.217Z,4.20
2019-03-11T03:41:27.927Z,4.20
2019-03-11T03:42:03.522Z,4.10
2019-03-11T03:42:39.125Z,4.10
2019-03-11T03:43:14.701Z,4.10
2019-03-11T03:43:50.248Z,4.10
2019-03-11T03:44:25.863Z,4.10
2019-03-11T03:45:21.311Z,4.10
2019-03-11T03:45:56.881Z,4.10
2019-03-11T03:46:32.443Z,4.10
2019-03-11T03:47:08.290Z,4.10
2019-03-11T03:47:43.922Z,4.10
2019-03-11T03:48:19.519Z,4.10
2019-03-11T03:48:55.081Z,4.10
2019-03-11T03:49:31.266Z,4.10
2019-03-11T03:50:07.244Z,4.10
2019-03-11T03:50:42.785Z,4.10
2019-03-11T03:51:18.573Z,4.10
2019-03-11T03:51:54.104Z,4.10
2019-03-11T03:52:30.619Z,4.10
2019-03-11T03:53:06.212Z,4.10
2019-03-11T03:53:42.725Z,4.10
2019-03-11T03:54:19.144Z,4.10
2019-03-11T03:54:54.791Z,4.10
2019-03-11T03:55:30.340Z,4.10
2019-03-11T03:56:05.891Z,4.10
2019-03-11T03:56:42.520Z,4.10
2019-03-11T03:57:18.649Z,4.10
2019-03-11T03:57:54.285Z,4.10
2019-03-11T03:58:30.192Z,4.10
2019-03-11T03:59:05.739Z,4.10
2019-03-11T03:59:41.575Z,4.10
2019-03-11T04:00:17.121Z,4.10
2019-03-11T04:00:52.654Z,4.10
2019-03-11T04:01:28.200Z,4.10
2019-03-11T04:02:03.744Z,4.10
2019-03-11T04:02:39.338Z,4.00
2019-03-11T04:03:15.180Z,4.10
2019-03-11T04:03:51.028Z,4.10
2019-03-11T04:04:26.573Z,4.10
2019-03-11T04:05:02.129Z,4.10
2019-03-11T04:05:37.796Z,4.10
2019-03-11T04:06:13.359Z,4.10
2019-03-11T04:06:49.171Z,4.10
2019-03-11T04:07:25.021Z,4.10
2019-03-11T04:08:00.580Z,4.10
2019-03-11T04:08:36.180Z,4.10
2019-03-11T04:09:11.715Z,4.00
2019-03-11T04:09:47.263Z,4.10
2019-03-11T04:10:23.123Z,4.00
2019-03-11T04:10:58.675Z,4.10
2019-03-11T04:11:34.261Z,4.10
2019-03-11T04:12:10.135Z,4.10
2019-03-11T04:12:45.707Z,4.10
2019-03-11T04:13:21.235Z,4.10
2019-03-11T04:13:57.749Z,4.10
2019-03-11T04:14:33.315Z,4.10
2019-03-11T04:15:09.687Z,4.10
2019-03-11T04:15:45.589Z,4.10
2019-03-11T04:16:21.424Z,4.10
2019-03-11T04:16:56.981Z,4.20
2019-03-11T04:17:32.529Z,4.20
2019-03-11T04:18:09.547Z,4.20
2019-03-11T04:18:55.948Z,4.20
2019-03-11T04:19:32.442Z,4.20
2019-03-11T04:20:10.269Z,4.20
2019-03-11T04:20:46.267Z,4.20
2019-03-11T04:21:21.917Z,4.20
2019-03-11T04:21:57.478Z,4.20
2019-03-11T04:22:33.346Z,4.20
2019-03-11T04:23:08.989Z,4.20
2019-03-11T04:23:44.556Z,4.20
2019-03-11T04:24:20.110Z,4.20
2019-03-11T04:24:56.195Z,4.20
2019-03-11T04:25:32.128Z,4.20
2019-03-11T04:26:07.968Z,4.20
2019-03-11T04:26:43.783Z,4.20
2019-03-11T04:27:19.325Z,4.20
2019-03-11T04:27:55.002Z,4.20
2019-03-11T04:28:30.919Z,4.20
2019-03-11T04:29:06.468Z,4.20
2019-03-11T04:29:42.033Z,4.20
2019-03-11T04:30:21.907Z,4.20
2019-03-11T04:30:57.458Z,4.20
2019-03-11T04:31:33.292Z,4.20
2019-03-11T04:32:08.938Z,4.20
2019-03-11T04:32:44.471Z,4.20
2019-03-11T04:33:20.029Z,4.20
2019-03-11T04:33:55.603Z,4.20
2019-03-11T04:34:31.143Z,4.20
2019-03-11T04:35:07.640Z,4.20
2019-03-11T04:35:43.199Z,4.20
2019-03-11T04:36:18.773Z,4.20
2019-03-11T04:36:54.323Z,4.20
2019-03-11T04:37:30.167Z,4.20
2019-03-11T04:38:06.786Z,4.20
2019-03-11T04:38:42.336Z,4.10
2019-03-11T04:39:17.875Z,4.20
2019-03-11T04:39:53.414Z,4.10
2019-03-11T04:40:28.958Z,4.10
2019-03-11T04:41:05.542Z,4.10
2019-03-11T04:41:42.359Z,4.10
2019-03-11T04:42:17.927Z,4.10
2019-03-11T04:42:53.486Z,4.10
2019-03-11T04:43:29.907Z,4.10
2019-03-11T04:44:06.753Z,4.10
2019-03-11T04:44:42.627Z,4.10
2019-03-11T04:45:18.200Z,4.10
2019-03-11T04:45:53.734Z,4.10
2019-03-11T04:46:29.730Z,4.10
2019-03-11T04:47:05.276Z,4.10
2019-03-11T04:47:40.850Z,4.10
2019-03-11T04:48:16.747Z,4.10
2019-03-11T04:48:52.558Z,4.00
2019-03-11T04:49:28.101Z,4.00
2019-03-11T04:50:03.803Z,4.00
2019-03-11T04:50:39.367Z,4.00
2019-03-11T04:51:14.911Z,4.00
2019-03-11T04:51:50.452Z,4.00
2019-03-11T04:52:26.465Z,4.00
2019-03-11T04:53:02.024Z,4.10
2019-03-11T04:53:37.610Z,4.00
2019-03-11T04:54:14.238Z,4.00
2019-03-11T04:54:49.780Z,4.10
2019-03-11T04:55:25.315Z,4.00
2019-03-11T04:56:01.227Z,4.10
2019-03-11T04:56:36.795Z,4.00
2019-03-11T04:57:12.411Z,4.10
2019-03-11T04:57:52.700Z,4.00
2019-03-11T04:58:28.582Z,4.10
2019-03-11T04:59:11.744Z,4.10
2019-03-11T04:59:47.543Z,4.10
2019-03-11T05:00:25.170Z,4.10
2019-03-11T05:01:00.718Z,4.10
2019-03-11T05:01:36.334Z,4.10
2019-03-11T05:02:11.876Z,4.10
2019-03-11T05:02:47.468Z,4.20
2019-03-11T05:03:23.082Z,4.20
2019-03-11T05:03:58.654Z,4.20
2019-03-11T05:04:34.192Z,4.10
2019-03-11T05:05:10.084Z,4.10
2019-03-11T05:05:45.644Z,4.10
2019-03-11T05:06:21.258Z,4.10
2019-03-11T05:06:56.810Z,4.10
2019-03-11T05:07:33.327Z,4.10
2019-03-11T05:08:08.867Z,4.10
2019-03-11T05:08:44.722Z,4.10
2019-03-11T05:09:20.282Z,4.10
2019-03-11T05:09:55.839Z,4.10
2019-03-11T05:10:31.385Z,4.10
2019-03-11T05:11:08.006Z,4.10
2019-03-11T05:11:43.539Z,4.10
2019-03-11T05:12:19.083Z,4.10
2019-03-11T05:12:54.614Z,4.10
2019-03-11T05:13:30.170Z,4.10
2019-03-11T05:14:06.030Z,4.10
2019-03-11T05:14:41.677Z,4.10
2019-03-11T05:15:17.251Z,4.10
2019-03-11T05:15:52.815Z,4.10
2019-03-11T05:16:28.362Z,4.10
2019-03-11T05:17:03.903Z,4.10
2019-03-11T05:17:39.443Z,4.00
2019-03-11T05:18:16.054Z,4.00
2019-03-11T05:18:51.848Z,4.00
2019-03-11T05:19:27.393Z,4.00
2019-03-11T05:20:03.112Z,4.00
2019-03-11T05:20:38.674Z,4.10
2019-03-11T05:21:14.212Z,4.10
2019-03-11T05:21:49.763Z,4.00
2019-03-11T05:22:25.662Z,4.10
2019-03-11T05:23:01.234Z,4.10
2019-03-11T05:23:36.888Z,4.10
2019-03-11T05:24:12.692Z,4.10
2019-03-11T05:24:48.340Z,4.10
2019-03-11T05:25:23.921Z,4.10
2019-03-11T05:25:59.463Z,4.10
2019-03-11T05:26:35.006Z,4.10
2019-03-11T05:27:10.875Z,4.00
2019-03-11T05:27:46.418Z,4.00
2019-03-11T05:28:22.231Z,4.00
2019-03-11T05:28:57.759Z,4.00
2019-03-11T05:29:33.300Z,4.00
2019-03-11T05:30:11.671Z,4.00
2019-03-11T05:30:47.294Z,4.00
2019-03-11T05:31:22.834Z,4.00
2019-03-11T05:31:58.390Z,4.00
2019-03-11T05:32:33.947Z,4.00
2019-03-11T05:33:09.768Z,4.00
2019-03-11T05:33:45.311Z,4.00
2019-03-11T05:34:20.856Z,4.00
2019-03-11T05:34:56.431Z,4.00
2019-03-11T05:35:32.135Z,4.00
2019-03-11T05:36:07.686Z,4.00
2019-03-11T05:36:43.599Z,4.00
2019-03-11T05:37:19.412Z,4.00
2019-03-11T05:37:54.964Z,4.00
2019-03-11T05:38:30.544Z,4.00
2019-03-11T05:39:07.758Z,4.00
2019-03-11T05:39:43.302Z,4.00
2019-03-11T05:40:18.885Z,4.00
2019-03-11T05:40:54.444Z,4.00
2019-03-11T05:41:30.191Z,4.00
2019-03-11T05:42:05.743Z,4.00
2019-03-11T05:42:41.291Z,4.00
2019-03-11T05:43:16.866Z,4.00
2019-03-11T05:43:52.761Z,4.00
2019-03-11T05:44:28.302Z,4.10
2019-03-11T05:45:03.875Z,4.10
2019-03-11T05:45:39.445Z,4.10
2019-03-11T05:46:14.987Z,4.10
2019-03-11T05:46:50.575Z,4.10
2019-03-11T05:47:26.115Z,4.00
2019-03-11T05:48:01.654Z,4.10
2019-03-11T05:48:37.490Z,4.10
2019-03-11T05:49:13.043Z,4.10
2019-03-11T05:49:48.947Z,4.10
2019-03-11T05:50:24.967Z,4.10
2019-03-11T05:51:00.519Z,4.10
2019-03-11T05:51:36.066Z,4.10
2019-03-11T05:52:11.677Z,4.10
2019-03-11T05:52:47.222Z,4.10
2019-03-11T05:53:22.762Z,4.10
2019-03-11T05:53:58.303Z,4.10
2019-03-11T05:54:33.935Z,4.10
2019-03-11T05:55:09.570Z,4.10
2019-03-11T05:55:45.155Z,4.10
2019-03-11T05:56:21.109Z,4.20
2019-03-11T05:56:58.980Z,4.20
2019-03-11T05:57:33.889Z,4.20
2019-03-11T05:58:09.445Z,4.20
2019-03-11T05:58:45.001Z,4.10
2019-03-11T05:59:20.547Z,4.20
2019-03-11T05:59:56.454Z,4.20
2019-03-11T06:00:32.171Z,4.20
2019-03-11T06:01:07.787Z,4.20
2019-03-11T06:01:43.850Z,4.20
2019-03-11T06:02:19.423Z,4.20
2019-03-11T06:02:54.960Z,4.20
2019-03-11T06:03:30.502Z,4.20
2019-03-11T06:04:06.603Z,4.20
2019-03-11T06:04:42.143Z,4.20
2019-03-11T06:05:18.659Z,4.20
2019-03-11T06:05:54.288Z,4.20
2019-03-11T06:06:30.215Z,4.20
2019-03-11T06:07:06.024Z,4.20
2019-03-11T06:07:42.691Z,4.20
2019-03-11T06:08:21.235Z,4.20
2019-03-11T06:08:57.218Z,4.10
2019-03-11T06:09:32.818Z,4.10
2019-03-11T06:10:09.203Z,4.20
2019-03-11T06:10:44.822Z,4.10
2019-03-11T06:11:21.106Z,4.20
2019-03-11T06:11:56.921Z,4.10
2019-03-11T06:12:32.490Z,4.10
2019-03-11T06:13:08.431Z,4.10
2019-03-11T06:13:44.066Z,4.10
2019-03-11T06:14:19.631Z,4.10
2019-03-11T06:14:55.242Z,4.10
2019-03-11T06:15:30.800Z,4.10
2019-03-11T06:16:06.618Z,4.10
2019-03-11T06:16:42.251Z,4.10
2019-03-11T06:17:17.964Z,4.10
2019-03-11T06:17:53.692Z,4.10
2019-03-11T06:18:54.763Z,4.10
2019-03-11T06:19:30.382Z,4.00
2019-03-11T06:20:32.456Z,4.10
2019-03-11T06:21:18.333Z,4.00
2019-03-11T06:21:58.929Z,4.00
2019-03-11T06:22:35.122Z,4.00
2019-03-11T06:23:11.375Z,4.00
2019-03-11T06:23:46.926Z,4.00
2019-03-11T06:24:22.462Z,4.00
2019-03-11T06:24:58.020Z,4.00
2019-03-11T06:25:33.875Z,4.00
2019-03-11T06:26:09.421Z,4.00
2019-03-11T06:26:45.015Z,4.00
2019-03-11T06:27:20.550Z,4.00
2019-03-11T06:27:56.094Z,4.00
2019-03-11T06:28:31.650Z,4.00
2019-03-11T06:29:07.198Z,4.00
2019-03-11T06:29:42.755Z,4.00
2019-03-11T06:30:18.577Z,3.90
2019-03-11T06:30:54.126Z,3.90
2019-03-11T06:31:29.947Z,3.90
2019-03-11T06:32:06.723Z,4.00
2019-03-11T06:32:42.283Z,3.90
2019-03-11T06:33:17.807Z,3.90
2019-03-11T06:33:53.348Z,3.90
2019-03-11T06:34:29.141Z,3.90
2019-03-11T06:35:04.713Z,3.90
2019-03-11T06:35:40.678Z,3.90
2019-03-11T06:36:17.334Z,3.90
2019-03-11T06:36:52.891Z,3.80
2019-03-11T06:37:28.435Z,3.80
2019-03-11T06:38:04.003Z,3.80
2019-03-11T06:38:39.591Z,3.80
2019-03-11T06:39:15.463Z,3.80
2019-03-11T06:39:51.259Z,3.80
2019-03-11T06:40:27.116Z,3.80
2019-03-11T06:41:02.679Z,3.80
2019-03-11T06:41:38.543Z,3.80
2019-03-11T06:42:14.107Z,3.80
2019-03-11T06:42:49.667Z,3.80
2019-03-11T06:43:25.581Z,3.80
2019-03-11T06:44:01.153Z,3.80
2019-03-11T06:44:36.735Z,3.80
2019-03-11T06:45:12.551Z,3.80
2019-03-11T06:45:48.088Z,3.80
2019-03-11T06:46:23.704Z,3.80
2019-03-11T06:46:59.542Z,3.80
2019-03-11T06:47:35.099Z,3.80
2019-03-11T06:48:10.911Z,3.80
2019-03-11T06:48:46.443Z,3.80
2019-03-11T06:49:27.807Z,3.80
2019-03-11T06:50:03.406Z,3.80
2019-03-11T06:50:38.957Z,3.80
2019-03-11T06:51:14.491Z,3.80
2019-03-11T06:51:50.030Z,3.80
2019-03-11T06:52:25.827Z,3.80
2019-03-11T06:53:01.628Z,3.80
2019-03-11T06:53:37.182Z,3.80
2019-03-11T06:54:12.761Z,3.80
2019-03-11T06:54:48.311Z,3.80
2019-03-11T06:55:23.849Z,3.80
2019-03-11T06:55:59.645Z,3.80
2019-03-11T06:56:35.172Z,3.80
2019-03-11T06:57:12.689Z,3.80
2019-03-11T06:57:48.268Z,3.80
2019-03-11T06:58:23.823Z,3.90
2019-03-11T06:59:00.043Z,3.90
2019-03-11T06:59:36.842Z,3.90
2019-03-11T07:00:13.618Z,3.90
2019-03-11T07:00:49.155Z,3.90
2019-03-11T07:01:24.698Z,3.90
2019-03-11T07:02:00.239Z,3.80
2019-03-11T07:02:35.783Z,3.90
2019-03-11T07:03:11.623Z,3.90
2019-03-11T07:03:47.460Z,3.80
2019-03-11T07:04:23.003Z,3.80
2019-03-11T07:04:58.617Z,3.80
2019-03-11T07:05:34.296Z,3.80
2019-03-11T07:06:09.826Z,3.80
2019-03-11T07:06:46.682Z,3.80
2019-03-11T07:07:22.526Z,3.80
2019-03-11T07:07:58.321Z,3.80
2019-03-11T07:08:33.858Z,3.80
2019-03-11T07:09:09.421Z,3.80
2019-03-11T07:09:45.367Z,3.80
2019-03-11T07:10:21.212Z,3.80
2019-03-11T07:10:56.776Z,3.80
2019-03-11T07:11:32.367Z,3.80
2019-03-11T07:12:08.221Z,3.80
2019-03-11T07:12:43.787Z,3.80
2019-03-11T07:13:19.694Z,3.80
2019-03-11T07:13:55.226Z,3.80
2019-03-11T07:14:31.739Z,3.80
2019-03-11T07:15:08.195Z,3.80
2019-03-11T07:15:43.978Z,3.80
2019-03-11T07:16:19.517Z,3.80
2019-03-11T07:16:55.349Z,3.80
2019-03-11T07:17:30.903Z,3.80
2019-03-11T07:18:07.039Z,3.80
2019-03-11T07:18:42.584Z,3.80
2019-03-11T07:19:19.108Z,3.80
2019-03-11T07:19:54.670Z,3.80
2019-03-11T07:20:30.302Z,3.80
2019-03-11T07:21:06.167Z,3.80
2019-03-11T07:21:42.078Z,3.80
2019-03-11T07:22:17.885Z,3.80
2019-03-11T07:22:53.442Z,3.80
2019-03-11T07:23:29.103Z,3.80
2019-03-11T07:24:04.746Z,3.90
2019-03-11T07:24:40.291Z,3.90
2019-03-11T07:25:15.852Z,3.90
2019-03-11T07:25:51.550Z,3.90
2019-03-11T07:26:27.118Z,3.90
2019-03-11T07:27:02.675Z,4.00
2019-03-11T07:27:38.223Z,4.00
2019-03-11T07:28:13.778Z,4.00
2019-03-11T07:28:49.590Z,4.00
2019-03-11T07:29:25.165Z,4.10
2019-03-11T07:30:00.746Z,4.00
2019-03-11T07:30:37.569Z,4.10
2019-03-11T07:31:13.182Z,4.10
2019-03-11T07:31:48.739Z,4.10
2019-03-11T07:32:24.359Z,4.10
2019-03-11T07:32:59.929Z,4.10
2019-03-11T07:33:35.475Z,4.10
2019-03-11T07:34:11.100Z,4.10
2019-03-11T07:34:46.674Z,4.10
2019-03-11T07:35:23.199Z,4.10
2019-03-11T07:35:58.754Z,4.10
2019-03-11T07:36:34.316Z,4.10
2019-03-11T07:37:09.959Z,4.00
2019-03-11T07:37:45.624Z,4.10
2019-03-11T07:38:22.755Z,4.10
2019-03-11T07:38:58.565Z,4.00
2019-03-11T07:39:34.123Z,4.10
2019-03-11T07:40:09.683Z,4.10
2019-03-11T07:40:45.278Z,4.00
2019-03-11T07:41:20.822Z,4.10
2019-03-11T07:41:56.368Z,4.00
2019-03-11T07:42:32.159Z,4.00
2019-03-11T07:43:07.690Z,4.00
2019-03-11T07:43:43.241Z,4.00
2019-03-11T07:44:18.787Z,4.10
2019-03-11T07:44:54.623Z,4.10
2019-03-11T07:45:30.514Z,4.10
2019-03-11T07:46:06.056Z,4.10
2019-03-11T07:46:45.378Z,4.10
2019-03-11T07:47:20.251Z,4.10
2019-03-11T07:47:56.064Z,4.00
2019-03-11T07:48:31.635Z,4.10
2019-03-11T07:49:07.198Z,4.10
2019-03-11T07:49:42.731Z,4.00
2019-03-11T07:50:18.266Z,4.10
2019-03-11T07:50:53.829Z,4.10
2019-03-11T07:51:29.379Z,4.10
2019-03-11T07:52:04.927Z,4.00
2019-03-11T07:52:40.482Z,4.00
2019-03-11T07:53:16.034Z,4.00
2019-03-11T07:53:51.593Z,4.00
2019-03-11T07:54:35.483Z,4.10
2019-03-11T07:55:04.994Z,4.10
2019-03-11T07:55:40.530Z,4.10
2019-03-11T07:56:16.082Z,4.10
2019-03-11T07:56:51.947Z,4.10
2019-03-11T07:57:27.492Z,4.00
2019-03-11T07:58:03.067Z,4.00
2019-03-11T07:58:38.958Z,4.10
2019-03-11T07:59:14.513Z,4.00
2019-03-11T07:59:50.059Z,4.10